sensor_id;sensor_type;location;lat;lon;timestamp;pressure;altitude;pressure_sealevel;temperature;humidity
11444;BME280;5778;47.856;12.154;2023-03-22T00:01:09;96213.28;;;10.52;100.00
11444;BME280;5778;47.856;12.154;2023-03-22T00:06:59;96211.88;;;10.45;100.00
11444;BME280;5778;47.856;12.154;2023-03-22T00:09:26;96211.81;;;10.35;100.00
11444;BME280;5778;47.856;12.154;2023-03-22T00:11:53;96215.25;;;10.35;100.00
11444;BME280;5778;47.856;12.154;2023-03-22T00:14:31;96212.84;;;10.34;100.00
11444;BME280;5778;47.856;12.154;2023-03-22T00:16:59;96215.50;;;10.34;100.00
11444;BME280;5778;47.856;12.154;2023-03-22T00:19:26;96211.75;;;10.30;100.00
11444;BME280;5778;47.856;12.154;2023-03-22T00:21:53;96206.94;;;10.27;100.00
11444;BME280;5778;47.856;12.154;2023-03-22T00:24:26;96207.47;;;10.24;100.00
11444;BME280;5778;47.856;12.154;2023-03-22T00:26:53;96204.13;;;10.12;100.00
11444;BME280;5778;47.856;12.154;2023-03-22T00:29:20;96206.19;;;10.05;100.00
11444;BME280;5778;47.856;12.154;2023-03-22T00:31:48;96199.06;;;10.05;100.00
11444;BME280;5778;47.856;12.154;2023-03-22T00:34:30;96199.44;;;9.97;100.00
11444;BME280;5778;47.856;12.154;2023-03-22T00:36:58;96196.75;;;9.92;100.00
11444;BME280;5778;47.856;12.154;2023-03-22T00:39:25;96192.53;;;9.96;100.00
11444;BME280;5778;47.856;12.154;2023-03-22T00:41:52;96193.66;;;9.52;100.00
11444;BME280;5778;47.856;12.154;2023-03-22T00:47:31;96188.91;;;9.33;100.00
11444;BME280;5778;47.856;12.154;2023-03-22T00:50:00;96185.50;;;9.37;100.00
11444;BME280;5778;47.856;12.154;2023-03-22T00:52:28;96180.28;;;9.42;100.00
11444;BME280;5778;47.856;12.154;2023-03-22T00:58:18;96174.78;;;9.27;100.00
11444;BME280;5778;47.856;12.154;2023-03-22T01:00:45;96165.53;;;9.30;100.00
11444;BME280;5778;47.856;12.154;2023-03-22T01:03:12;96164.84;;;9.18;100.00
11444;BME280;5778;47.856;12.154;2023-03-22T01:05:43;96158.25;;;9.20;100.00
11444;BME280;5778;47.856;12.154;2023-03-22T01:08:11;96157.38;;;8.93;100.00
11444;BME280;5778;47.856;12.154;2023-03-22T01:10:40;96154.53;;;9.00;100.00
11444;BME280;5778;47.856;12.154;2023-03-22T01:13:43;96142.56;;;8.97;100.00
11444;BME280;5778;47.856;12.154;2023-03-22T01:16:12;96145.91;;;8.50;100.00
11444;BME280;5778;47.856;12.154;2023-03-22T01:18:39;96147.09;;;8.26;100.00
11444;BME280;5778;47.856;12.154;2023-03-22T01:21:09;96149.19;;;8.40;100.00
11444;BME280;5778;47.856;12.154;2023-03-22T01:26:54;96146.88;;;8.27;100.00
11444;BME280;5778;47.856;12.154;2023-03-22T01:29:22;96154.25;;;8.42;100.00
11444;BME280;5778;47.856;12.154;2023-03-22T01:31:49;96141.22;;;8.40;100.00
11444;BME280;5778;47.856;12.154;2023-03-22T01:34:33;96148.56;;;8.50;100.00
11444;BME280;5778;47.856;12.154;2023-03-22T01:37:03;96142.97;;;8.51;100.00
11444;BME280;5778;47.856;12.154;2023-03-22T01:39:31;96135.63;;;8.53;100.00
11444;BME280;5778;47.856;12.154;2023-03-22T01:42:02;96137.44;;;8.53;100.00
11444;BME280;5778;47.856;12.154;2023-03-22T01:44:30;96129.50;;;8.53;100.00
11444;BME280;5778;47.856;12.154;2023-03-22T01:46:59;96124.28;;;8.58;100.00
11444;BME280;5778;47.856;12.154;2023-03-22T01:49:30;96118.50;;;8.61;100.00
11444;BME280;5778;47.856;12.154;2023-03-22T01:52:04;96120.03;;;8.57;100.00
11444;BME280;5778;47.856;12.154;2023-03-22T01:54:52;96121.63;;;8.58;100.00
11444;BME280;5778;47.856;12.154;2023-03-22T01:57:32;96117.00;;;8.32;100.00
11444;BME280;5778;47.856;12.154;2023-03-22T02:00:08;96121.00;;;8.34;100.00
11444;BME280;5778;47.856;12.154;2023-03-22T02:03:01;96117.06;;;8.37;100.00
11444;BME280;5778;47.856;12.154;2023-03-22T02:05:35;96112.28;;;8.34;100.00
11444;BME280;5778;47.856;12.154;2023-03-22T02:08:04;96115.56;;;8.24;100.00
11444;BME280;5778;47.856;12.154;2023-03-22T02:10:50;96121.34;;;8.21;100.00
11444;BME280;5778;47.856;12.154;2023-03-22T02:16:58;96125.91;;;8.26;100.00
11444;BME280;5778;47.856;12.154;2023-03-22T02:26:15;96119.81;;;8.42;100.00
11444;BME280;5778;47.856;12.154;2023-03-22T02:28:51;96112.41;;;8.44;100.00
11444;BME280;5778;47.856;12.154;2023-03-22T02:31:47;96114.44;;;8.37;100.00
11444;BME280;5778;47.856;12.154;2023-03-22T02:37:53;96112.91;;;8.41;100.00
11444;BME280;5778;47.856;12.154;2023-03-22T02:40:30;96102.22;;;8.36;100.00
11444;BME280;5778;47.856;12.154;2023-03-22T02:43:23;96099.81;;;8.34;100.00
11444;BME280;5778;47.856;12.154;2023-03-22T02:46:02;96103.81;;;8.37;100.00
11444;BME280;5778;47.856;12.154;2023-03-22T02:48:33;96108.34;;;8.36;100.00
11444;BME280;5778;47.856;12.154;2023-03-22T02:51:05;96099.16;;;8.44;100.00
11444;BME280;5778;47.856;12.154;2023-03-22T02:56:49;96092.50;;;8.41;100.00
11444;BME280;5778;47.856;12.154;2023-03-22T02:59:21;96097.09;;;8.29;100.00
11444;BME280;5778;47.856;12.154;2023-03-22T03:01:52;96101.91;;;8.32;100.00
11444;BME280;5778;47.856;12.154;2023-03-22T03:04:42;96104.53;;;8.16;100.00
11444;BME280;5778;47.856;12.154;2023-03-22T03:07:12;96109.19;;;7.92;100.00
11444;BME280;5778;47.856;12.154;2023-03-22T03:09:42;96097.25;;;7.90;100.00
11444;BME280;5778;47.856;12.154;2023-03-22T03:12:17;96107.19;;;7.83;100.00
11444;BME280;5778;47.856;12.154;2023-03-22T03:14:53;96118.91;;;7.87;100.00
11444;BME280;5778;47.856;12.154;2023-03-22T03:17:37;96105.91;;;7.85;100.00
11444;BME280;5778;47.856;12.154;2023-03-22T03:20:16;96110.00;;;7.93;100.00
11444;BME280;5778;47.856;12.154;2023-03-22T03:23:07;96105.84;;;7.97;100.00
11444;BME280;5778;47.856;12.154;2023-03-22T03:25:43;96106.47;;;8.04;100.00
11444;BME280;5778;47.856;12.154;2023-03-22T03:28:16;96108.00;;;8.00;100.00
11444;BME280;5778;47.856;12.154;2023-03-22T03:30:58;96108.34;;;8.03;100.00
11444;BME280;5778;47.856;12.154;2023-03-22T03:33:31;96111.69;;;7.99;100.00
11444;BME280;5778;47.856;12.154;2023-03-22T03:36:05;96104.78;;;7.98;100.00
11444;BME280;5778;47.856;12.154;2023-03-22T03:38:37;96110.09;;;7.98;100.00
11444;BME280;5778;47.856;12.154;2023-03-22T03:41:08;96110.56;;;7.95;100.00
11444;BME280;5778;47.856;12.154;2023-03-22T03:43:40;96112.09;;;7.91;100.00
11444;BME280;5778;47.856;12.154;2023-03-22T03:46:09;96115.31;;;7.48;100.00
11444;BME280;5778;47.856;12.154;2023-03-22T03:48:37;96112.31;;;7.28;100.00
11444;BME280;5778;47.856;12.154;2023-03-22T03:51:06;96105.25;;;7.34;100.00
11444;BME280;5778;47.856;12.154;2023-03-22T03:56:40;96112.56;;;7.15;100.00
11444;BME280;5778;47.856;12.154;2023-03-22T03:59:08;96113.00;;;7.24;100.00
11444;BME280;5778;47.856;12.154;2023-03-22T04:01:35;96116.38;;;7.19;100.00
11444;BME280;5778;47.856;12.154;2023-03-22T04:04:15;96120.06;;;7.18;100.00
11444;BME280;5778;47.856;12.154;2023-03-22T04:06:48;96120.38;;;7.22;100.00
11444;BME280;5778;47.856;12.154;2023-03-22T04:09:21;96118.16;;;7.30;100.00
11444;BME280;5778;47.856;12.154;2023-03-22T04:11:52;96119.31;;;7.34;100.00
11444;BME280;5778;47.856;12.154;2023-03-22T04:17:46;96120.13;;;7.51;100.00
11444;BME280;5778;47.856;12.154;2023-03-22T04:20:15;96117.34;;;7.58;100.00
11444;BME280;5778;47.856;12.154;2023-03-22T04:22:42;96125.63;;;7.61;100.00
11444;BME280;5778;47.856;12.154;2023-03-22T04:25:13;96120.00;;;7.74;100.00
11444;BME280;5778;47.856;12.154;2023-03-22T04:28:03;96114.56;;;7.81;100.00
11444;BME280;5778;47.856;12.154;2023-03-22T04:30:33;96125.63;;;7.78;100.00
11444;BME280;5778;47.856;12.154;2023-03-22T04:33:41;96128.94;;;7.85;100.00
11444;BME280;5778;47.856;12.154;2023-03-22T04:36:18;96125.16;;;7.81;100.00
11444;BME280;5778;47.856;12.154;2023-03-22T04:39:06;96132.69;;;7.89;100.00
11444;BME280;5778;47.856;12.154;2023-03-22T04:41:34;96122.91;;;7.89;100.00
11444;BME280;5778;47.856;12.154;2023-03-22T04:44:05;96131.41;;;7.91;100.00
11444;BME280;5778;47.856;12.154;2023-03-22T04:46:37;96111.91;;;7.97;100.00
11444;BME280;5778;47.856;12.154;2023-03-22T04:49:07;96112.97;;;8.13;100.00
11444;BME280;5778;47.856;12.154;2023-03-22T04:51:37;96106.00;;;8.07;100.00
11444;BME280;5778;47.856;12.154;2023-03-22T04:57:49;96101.25;;;7.92;100.00
11444;BME280;5778;47.856;12.154;2023-03-22T05:00:21;96099.31;;;7.88;100.00
11444;BME280;5778;47.856;12.154;2023-03-22T05:06:05;96104.63;;;7.88;100.00
11444;BME280;5778;47.856;12.154;2023-03-22T05:09:07;96111.50;;;7.89;100.00
11444;BME280;5778;47.856;12.154;2023-03-22T05:11:34;96110.66;;;7.83;100.00
11444;BME280;5778;47.856;12.154;2023-03-22T05:17:49;96106.09;;;7.79;100.00
11444;BME280;5778;47.856;12.154;2023-03-22T05:20:16;96111.38;;;7.79;100.00
11444;BME280;5778;47.856;12.154;2023-03-22T05:22:54;96117.44;;;7.79;100.00
11444;BME280;5778;47.856;12.154;2023-03-22T05:25:23;96110.63;;;7.67;100.00
11444;BME280;5778;47.856;12.154;2023-03-22T05:27:49;96110.38;;;7.52;100.00
11444;BME280;5778;47.856;12.154;2023-03-22T05:30:44;96109.13;;;7.43;100.00
11444;BME280;5778;47.856;12.154;2023-03-22T05:33:25;96112.94;;;7.19;100.00
11444;BME280;5778;47.856;12.154;2023-03-22T05:35:55;96107.44;;;6.69;100.00
11444;BME280;5778;47.856;12.154;2023-03-22T05:38:25;96107.66;;;6.68;100.00
11444;BME280;5778;47.856;12.154;2023-03-22T05:40:56;96111.75;;;6.87;100.00
11444;BME280;5778;47.856;12.154;2023-03-22T05:43:49;96103.94;;;6.92;100.00
11444;BME280;5778;47.856;12.154;2023-03-22T05:46:17;96107.03;;;6.77;100.00
11444;BME280;5778;47.856;12.154;2023-03-22T05:49:04;96112.94;;;6.68;100.00
11444;BME280;5778;47.856;12.154;2023-03-22T05:51:31;96113.16;;;6.78;100.00
11444;BME280;5778;47.856;12.154;2023-03-22T05:54:03;96118.44;;;6.78;100.00
11444;BME280;5778;47.856;12.154;2023-03-22T05:56:37;96114.84;;;6.95;100.00
11444;BME280;5778;47.856;12.154;2023-03-22T05:59:05;96117.59;;;7.00;100.00
11444;BME280;5778;47.856;12.154;2023-03-22T06:01:33;96125.63;;;7.05;100.00
11444;BME280;5778;47.856;12.154;2023-03-22T06:07:24;96126.47;;;6.94;100.00
11444;BME280;5778;47.856;12.154;2023-03-22T06:09:56;96132.91;;;6.87;100.00
11444;BME280;5778;47.856;12.154;2023-03-22T06:12:26;96129.28;;;7.04;100.00
11444;BME280;5778;47.856;12.154;2023-03-22T06:15:02;96134.53;;;7.16;100.00
11444;BME280;5778;47.856;12.154;2023-03-22T06:17:32;96138.47;;;7.41;100.00
11444;BME280;5778;47.856;12.154;2023-03-22T06:19:59;96136.97;;;7.62;100.00
11444;BME280;5778;47.856;12.154;2023-03-22T06:22:25;96138.94;;;7.83;100.00
11444;BME280;5778;47.856;12.154;2023-03-22T06:24:58;96141.78;;;8.09;100.00
11444;BME280;5778;47.856;12.154;2023-03-22T06:27:35;96132.88;;;8.15;100.00
11444;BME280;5778;47.856;12.154;2023-03-22T06:30:02;96134.66;;;8.43;100.00
11444;BME280;5778;47.856;12.154;2023-03-22T06:32:37;96141.91;;;8.69;100.00
11444;BME280;5778;47.856;12.154;2023-03-22T06:35:07;96133.59;;;8.82;100.00
11444;BME280;5778;47.856;12.154;2023-03-22T06:37:33;96142.28;;;8.94;100.00
11444;BME280;5778;47.856;12.154;2023-03-22T06:40:02;96140.59;;;9.09;100.00
11444;BME280;5778;47.856;12.154;2023-03-22T06:42:29;96140.84;;;9.08;100.00
11444;BME280;5778;47.856;12.154;2023-03-22T06:45:05;96147.16;;;9.23;100.00
11444;BME280;5778;47.856;12.154;2023-03-22T06:47:35;96139.41;;;9.43;100.00
11444;BME280;5778;47.856;12.154;2023-03-22T06:50:02;96135.09;;;9.59;100.00
11444;BME280;5778;47.856;12.154;2023-03-22T06:53:07;96137.06;;;9.73;100.00
11444;BME280;5778;47.856;12.154;2023-03-22T06:55:35;96139.63;;;9.90;100.00
11444;BME280;5778;47.856;12.154;2023-03-22T06:58:21;96142.13;;;10.01;100.00
11444;BME280;5778;47.856;12.154;2023-03-22T07:00:48;96132.91;;;10.09;100.00
11444;BME280;5778;47.856;12.154;2023-03-22T07:03:54;96128.53;;;10.24;100.00
11444;BME280;5778;47.856;12.154;2023-03-22T07:06:22;96128.69;;;10.44;100.00
11444;BME280;5778;47.856;12.154;2023-03-22T07:08:50;96133.75;;;10.51;100.00
11444;BME280;5778;47.856;12.154;2023-03-22T07:11:22;96122.06;;;10.47;100.00
11444;BME280;5778;47.856;12.154;2023-03-22T07:17:32;96121.16;;;10.78;100.00
11444;BME280;5778;47.856;12.154;2023-03-22T07:19:59;96122.28;;;10.87;100.00
11444;BME280;5778;47.856;12.154;2023-03-22T07:22:26;96131.06;;;10.82;100.00
11444;BME280;5778;47.856;12.154;2023-03-22T07:25:05;96136.22;;;11.09;100.00
11444;BME280;5778;47.856;12.154;2023-03-22T07:27:34;96133.69;;;11.34;100.00
11444;BME280;5778;47.856;12.154;2023-03-22T07:30:02;96130.00;;;11.45;100.00
11444;BME280;5778;47.856;12.154;2023-03-22T07:32:32;96129.19;;;11.44;100.00
11444;BME280;5778;47.856;12.154;2023-03-22T07:35:09;96126.00;;;11.47;100.00
11444;BME280;5778;47.856;12.154;2023-03-22T07:37:38;96125.50;;;11.55;100.00
11444;BME280;5778;47.856;12.154;2023-03-22T07:40:13;96122.66;;;11.77;100.00
11444;BME280;5778;47.856;12.154;2023-03-22T07:42:42;96119.22;;;11.91;100.00
11444;BME280;5778;47.856;12.154;2023-03-22T07:45:27;96129.06;;;11.96;100.00
11444;BME280;5778;47.856;12.154;2023-03-22T07:48:24;96123.50;;;12.07;100.00
11444;BME280;5778;47.856;12.154;2023-03-22T07:51:15;96121.06;;;12.01;100.00
11444;BME280;5778;47.856;12.154;2023-03-22T07:53:47;96119.22;;;12.31;100.00
11444;BME280;5778;47.856;12.154;2023-03-22T07:56:14;96125.63;;;12.55;100.00
11444;BME280;5778;47.856;12.154;2023-03-22T07:58:43;96116.47;;;12.86;100.00
11444;BME280;5778;47.856;12.154;2023-03-22T08:01:09;96115.13;;;12.99;100.00
11444;BME280;5778;47.856;12.154;2023-03-22T08:04:17;96119.84;;;13.22;100.00
11444;BME280;5778;47.856;12.154;2023-03-22T08:07:07;96118.72;;;13.38;100.00
11444;BME280;5778;47.856;12.154;2023-03-22T08:09:36;96114.19;;;13.87;100.00
11444;BME280;5778;47.856;12.154;2023-03-22T08:12:04;96114.63;;;13.99;100.00
11444;BME280;5778;47.856;12.154;2023-03-22T08:17:49;96111.88;;;13.75;100.00
11444;BME280;5778;47.856;12.154;2023-03-22T08:20:38;96106.53;;;13.70;100.00
11444;BME280;5778;47.856;12.154;2023-03-22T08:23:11;96111.13;;;14.03;100.00
11444;BME280;5778;47.856;12.154;2023-03-22T08:26:03;96112.84;;;14.28;100.00
11444;BME280;5778;47.856;12.154;2023-03-22T08:28:32;96115.66;;;14.46;100.00
11444;BME280;5778;47.856;12.154;2023-03-22T08:30:59;96115.38;;;14.43;100.00
11444;BME280;5778;47.856;12.154;2023-03-22T08:33:58;96118.44;;;14.31;100.00
11444;BME280;5778;47.856;12.154;2023-03-22T08:36:25;96111.50;;;14.59;100.00
11444;BME280;5778;47.856;12.154;2023-03-22T08:39:00;96107.81;;;14.78;100.00
11444;BME280;5778;47.856;12.154;2023-03-22T08:41:51;96100.81;;;14.82;100.00
11444;BME280;5778;47.856;12.154;2023-03-22T08:44:27;96104.56;;;15.10;100.00
11444;BME280;5778;47.856;12.154;2023-03-22T08:46:54;96100.47;;;15.17;100.00
11444;BME280;5778;47.856;12.154;2023-03-22T08:49:23;96093.97;;;15.47;100.00
11444;BME280;5778;47.856;12.154;2023-03-22T08:51:57;96091.78;;;15.49;100.00
11444;BME280;5778;47.856;12.154;2023-03-22T08:54:59;96089.28;;;15.10;100.00
11444;BME280;5778;47.856;12.154;2023-03-22T08:57:49;96088.66;;;15.60;100.00
11444;BME280;5778;47.856;12.154;2023-03-22T09:00:38;96086.06;;;15.55;91.46
11444;BME280;5778;47.856;12.154;2023-03-22T09:03:33;96086.50;;;16.18;99.50
11444;BME280;5778;47.856;12.154;2023-03-22T09:06:02;96085.13;;;16.34;88.06
11444;BME280;5778;47.856;12.154;2023-03-22T09:08:35;96084.84;;;16.35;83.78
11444;BME280;5778;47.856;12.154;2023-03-22T09:11:08;96087.88;;;16.47;88.38
11444;BME280;5778;47.856;12.154;2023-03-22T09:17:00;96089.78;;;16.79;72.30
11444;BME280;5778;47.856;12.154;2023-03-22T09:19:27;96080.44;;;17.03;67.30
11444;BME280;5778;47.856;12.154;2023-03-22T09:21:55;96077.97;;;17.20;63.60
11444;BME280;5778;47.856;12.154;2023-03-22T09:24:46;96079.25;;;17.23;65.94
11444;BME280;5778;47.856;12.154;2023-03-22T09:27:13;96073.16;;;17.17;67.52
11444;BME280;5778;47.856;12.154;2023-03-22T09:29:41;96070.47;;;17.04;61.78
11444;BME280;5778;47.856;12.154;2023-03-22T09:32:13;96070.66;;;17.34;58.57
11444;BME280;5778;47.856;12.154;2023-03-22T09:34:52;96063.16;;;17.85;59.91
11444;BME280;5778;47.856;12.154;2023-03-22T09:37:22;96064.41;;;18.23;55.97
11444;BME280;5778;47.856;12.154;2023-03-22T09:39:56;96059.81;;;18.46;54.25
11444;BME280;5778;47.856;12.154;2023-03-22T09:42:29;96052.09;;;18.31;51.89
11444;BME280;5778;47.856;12.154;2023-03-22T09:45:01;96061.25;;;18.30;49.71
11444;BME280;5778;47.856;12.154;2023-03-22T09:47:33;96061.81;;;17.96;48.63
11444;BME280;5778;47.856;12.154;2023-03-22T09:50:05;96056.03;;;18.03;50.29
11444;BME280;5778;47.856;12.154;2023-03-22T09:52:34;96054.56;;;18.63;49.72
11444;BME280;5778;47.856;12.154;2023-03-22T09:55:01;96049.50;;;17.82;48.41
11444;BME280;5778;47.856;12.154;2023-03-22T09:57:31;96051.47;;;17.27;49.15
11444;BME280;5778;47.856;12.154;2023-03-22T10:00:05;96042.72;;;17.84;49.21
11444;BME280;5778;47.856;12.154;2023-03-22T10:02:46;96041.41;;;17.60;48.18
11444;BME280;5778;47.856;12.154;2023-03-22T10:05:20;96039.78;;;17.59;47.86
11444;BME280;5778;47.856;12.154;2023-03-22T10:08:15;96036.34;;;17.80;47.89
11444;BME280;5778;47.856;12.154;2023-03-22T10:10:45;96034.44;;;17.81;48.45
11444;BME280;5778;47.856;12.154;2023-03-22T10:13:32;96034.41;;;18.16;46.32
11444;BME280;5778;47.856;12.154;2023-03-22T10:16:03;96040.66;;;18.03;47.07
11444;BME280;5778;47.856;12.154;2023-03-22T10:18:33;96030.50;;;18.22;48.83
11444;BME280;5778;47.856;12.154;2023-03-22T10:21:03;96030.63;;;18.61;45.73
11444;BME280;5778;47.856;12.154;2023-03-22T10:23:37;96027.56;;;18.32;45.13
11444;BME280;5778;47.856;12.154;2023-03-22T10:26:08;96023.72;;;18.77;45.73
11444;BME280;5778;47.856;12.154;2023-03-22T10:28:40;96022.22;;;18.93;44.60
11444;BME280;5778;47.856;12.154;2023-03-22T10:31:12;96018.47;;;18.72;43.98
11444;BME280;5778;47.856;12.154;2023-03-22T10:33:45;96019.72;;;19.14;43.91
11444;BME280;5778;47.856;12.154;2023-03-22T10:36:20;96017.44;;;18.60;44.28
11444;BME280;5778;47.856;12.154;2023-03-22T10:38:52;96020.31;;;18.33;44.03
11444;BME280;5778;47.856;12.154;2023-03-22T10:41:22;96014.84;;;18.24;44.75
11444;BME280;5778;47.856;12.154;2023-03-22T10:43:52;96008.72;;;18.32;44.91
11444;BME280;5778;47.856;12.154;2023-03-22T10:46:23;96016.13;;;19.27;45.11
11444;BME280;5778;47.856;12.154;2023-03-22T10:48:55;96005.75;;;19.76;43.44
11444;BME280;5778;47.856;12.154;2023-03-22T10:51:25;96015.56;;;20.06;43.74
11444;BME280;5778;47.856;12.154;2023-03-22T10:53:55;96001.75;;;20.33;41.37
11444;BME280;5778;47.856;12.154;2023-03-22T10:56:23;96000.03;;;20.29;42.37
11444;BME280;5778;47.856;12.154;2023-03-22T10:58:50;95997.09;;;20.59;41.65
11444;BME280;5778;47.856;12.154;2023-03-22T11:01:24;95991.91;;;20.37;41.16
11444;BME280;5778;47.856;12.154;2023-03-22T11:03:56;95986.53;;;20.20;40.24
11444;BME280;5778;47.856;12.154;2023-03-22T11:06:26;95982.88;;;19.40;39.54
11444;BME280;5778;47.856;12.154;2023-03-22T11:08:59;95977.47;;;19.23;40.56
11444;BME280;5778;47.856;12.154;2023-03-22T11:11:28;95982.72;;;19.79;39.74
11444;BME280;5778;47.856;12.154;2023-03-22T11:14:03;95978.75;;;20.73;40.93
11444;BME280;5778;47.856;12.154;2023-03-22T11:16:40;95971.75;;;20.72;39.18
11444;BME280;5778;47.856;12.154;2023-03-22T11:19:13;95971.59;;;21.15;37.92
11444;BME280;5778;47.856;12.154;2023-03-22T11:21:41;95968.09;;;21.43;37.23
11444;BME280;5778;47.856;12.154;2023-03-22T11:24:11;95969.56;;;21.82;36.51
11444;BME280;5778;47.856;12.154;2023-03-22T11:26:40;95972.94;;;21.00;35.93
11444;BME280;5778;47.856;12.154;2023-03-22T11:29:14;95965.06;;;20.78;36.33
11444;BME280;5778;47.856;12.154;2023-03-22T11:31:52;95959.56;;;19.61;37.08
11444;BME280;5778;47.856;12.154;2023-03-22T11:34:20;95960.03;;;19.46;37.26
11444;BME280;5778;47.856;12.154;2023-03-22T11:36:48;95963.84;;;19.79;37.31
11444;BME280;5778;47.856;12.154;2023-03-22T11:39:23;95958.28;;;20.01;37.04
11444;BME280;5778;47.856;12.154;2023-03-22T11:41:56;95959.50;;;20.37;35.78
11444;BME280;5778;47.856;12.154;2023-03-22T11:44:42;95956.84;;;20.66;37.76
11444;BME280;5778;47.856;12.154;2023-03-22T11:47:12;95951.84;;;20.39;36.33
11444;BME280;5778;47.856;12.154;2023-03-22T11:49:43;95946.25;;;20.53;36.09
11444;BME280;5778;47.856;12.154;2023-03-22T11:52:15;95949.34;;;20.34;37.44
11444;BME280;5778;47.856;12.154;2023-03-22T11:54:48;95932.63;;;21.16;36.59
11444;BME280;5778;47.856;12.154;2023-03-22T11:57:18;95941.56;;;21.78;35.70
11444;BME280;5778;47.856;12.154;2023-03-22T11:59:49;95928.03;;;21.37;37.80
11444;BME280;5778;47.856;12.154;2023-03-22T12:02:22;95923.13;;;21.92;36.95
11444;BME280;5778;47.856;12.154;2023-03-22T12:04:55;95927.44;;;21.52;35.53
11444;BME280;5778;47.856;12.154;2023-03-22T12:07:27;95920.16;;;21.23;36.09
11444;BME280;5778;47.856;12.154;2023-03-22T12:10:00;95922.28;;;21.59;36.44
11444;BME280;5778;47.856;12.154;2023-03-22T12:12:30;95913.78;;;21.69;38.11
11444;BME280;5778;47.856;12.154;2023-03-22T12:15:02;95912.97;;;21.89;35.44
11444;BME280;5778;47.856;12.154;2023-03-22T12:17:35;95911.34;;;21.06;37.42
11444;BME280;5778;47.856;12.154;2023-03-22T12:20:14;95909.88;;;22.11;37.83
11444;BME280;5778;47.856;12.154;2023-03-22T12:22:47;95903.28;;;22.00;37.74
11444;BME280;5778;47.856;12.154;2023-03-22T12:25:20;95901.75;;;21.17;35.68
11444;BME280;5778;47.856;12.154;2023-03-22T12:27:51;95900.97;;;21.57;39.11
11444;BME280;5778;47.856;12.154;2023-03-22T12:30:21;95900.34;;;21.93;37.82
11444;BME280;5778;47.856;12.154;2023-03-22T12:33:12;95887.84;;;21.27;36.76
11444;BME280;5778;47.856;12.154;2023-03-22T12:35:44;95894.31;;;20.76;36.93
11444;BME280;5778;47.856;12.154;2023-03-22T12:38:21;95886.88;;;20.73;36.59
11444;BME280;5778;47.856;12.154;2023-03-22T12:40:51;95884.28;;;21.55;36.65
11444;BME280;5778;47.856;12.154;2023-03-22T12:43:32;95882.47;;;21.80;38.61
11444;BME280;5778;47.856;12.154;2023-03-22T12:46:03;95876.22;;;22.44;36.57
11444;BME280;5778;47.856;12.154;2023-03-22T12:48:35;95876.06;;;22.29;35.78
11444;BME280;5778;47.856;12.154;2023-03-22T12:51:05;95874.50;;;21.63;35.55
11444;BME280;5778;47.856;12.154;2023-03-22T12:53:34;95870.38;;;22.10;36.07
11444;BME280;5778;47.856;12.154;2023-03-22T12:56:10;95862.53;;;22.29;35.57
11444;BME280;5778;47.856;12.154;2023-03-22T12:58:38;95859.84;;;22.65;34.84
11444;BME280;5778;47.856;12.154;2023-03-22T13:01:16;95862.66;;;22.44;33.91
11444;BME280;5778;47.856;12.154;2023-03-22T13:03:49;95859.72;;;21.40;35.13
11444;BME280;5778;47.856;12.154;2023-03-22T13:06:30;95860.19;;;21.42;35.47
11444;BME280;5778;47.856;12.154;2023-03-22T13:09:09;95852.41;;;22.50;35.65
11444;BME280;5778;47.856;12.154;2023-03-22T13:11:42;95861.75;;;23.24;33.43
11444;BME280;5778;47.856;12.154;2023-03-22T13:17:42;95842.00;;;24.37;32.92
11444;BME280;5778;47.856;12.154;2023-03-22T13:20:27;95840.34;;;24.48;31.48
11444;BME280;5778;47.856;12.154;2023-03-22T13:23:09;95829.50;;;24.83;30.13
11444;BME280;5778;47.856;12.154;2023-03-22T13:25:37;95827.13;;;24.97;30.02
11444;BME280;5778;47.856;12.154;2023-03-22T13:28:21;95828.81;;;24.86;31.03
11444;BME280;5778;47.856;12.154;2023-03-22T13:30:52;95825.25;;;23.77;31.54
11444;BME280;5778;47.856;12.154;2023-03-22T13:33:25;95817.81;;;22.71;31.61
11444;BME280;5778;47.856;12.154;2023-03-22T13:35:54;95813.47;;;23.57;32.44
11444;BME280;5778;47.856;12.154;2023-03-22T13:38:25;95818.66;;;23.78;30.98
11444;BME280;5778;47.856;12.154;2023-03-22T13:40:58;95821.00;;;22.73;31.87
11444;BME280;5778;47.856;12.154;2023-03-22T13:43:53;95818.53;;;23.59;32.11
11444;BME280;5778;47.856;12.154;2023-03-22T13:46:43;95804.38;;;24.39;30.59
11444;BME280;5778;47.856;12.154;2023-03-22T13:49:37;95803.84;;;24.34;29.69
11444;BME280;5778;47.856;12.154;2023-03-22T13:52:22;95798.53;;;23.24;31.31
11444;BME280;5778;47.856;12.154;2023-03-22T13:54:51;95796.59;;;23.79;31.36
11444;BME280;5778;47.856;12.154;2023-03-22T13:57:38;95794.56;;;24.19;30.14
11444;BME280;5778;47.856;12.154;2023-03-22T14:00:17;95790.41;;;23.24;31.68
11444;BME280;5778;47.856;12.154;2023-03-22T14:02:52;95792.00;;;23.95;30.88
11444;BME280;5778;47.856;12.154;2023-03-22T14:05:22;95795.25;;;24.32;29.24
11444;BME280;5778;47.856;12.154;2023-03-22T14:07:52;95796.31;;;24.12;30.61
11444;BME280;5778;47.856;12.154;2023-03-22T14:10:24;95782.84;;;25.34;29.30
11444;BME280;5778;47.856;12.154;2023-03-22T14:12:55;95776.75;;;25.22;28.89
11444;BME280;5778;47.856;12.154;2023-03-22T14:15:27;95779.72;;;24.48;29.55
11444;BME280;5778;47.856;12.154;2023-03-22T14:17:59;95774.03;;;24.68;30.25
11444;BME280;5778;47.856;12.154;2023-03-22T14:20:31;95777.19;;;23.50;31.47
11444;BME280;5778;47.856;12.154;2023-03-22T14:26:25;95774.16;;;23.67;30.32
11444;BME280;5778;47.856;12.154;2023-03-22T14:28:52;95770.28;;;24.42;30.53
11444;BME280;5778;47.856;12.154;2023-03-22T14:31:26;95758.34;;;25.15;30.71
11444;BME280;5778;47.856;12.154;2023-03-22T14:34:07;95762.44;;;24.71;29.62
11444;BME280;5778;47.856;12.154;2023-03-22T14:36:38;95759.91;;;23.42;30.94
11444;BME280;5778;47.856;12.154;2023-03-22T14:39:11;95754.13;;;24.49;30.36
11444;BME280;5778;47.856;12.154;2023-03-22T14:41:55;95764.34;;;23.78;30.50